createdAt,value
2022-11-23T00:00:07.352Z,1.83
2022-11-23T00:02:55.491Z,1.88
2022-11-23T00:05:42.907Z,2.22
2022-11-23T00:08:11.358Z,2.50
2022-11-23T00:10:43.076Z,1.65
2022-11-23T00:13:12.730Z,1.25
2022-11-23T00:15:41.904Z,1.02
2022-11-23T00:18:13.800Z,1.77
2022-11-23T00:20:42.647Z,1.77
2022-11-23T00:23:11.305Z,1.77
2022-11-23T00:25:40.326Z,0.90
2022-11-23T00:28:11.783Z,0.95
2022-11-23T00:30:49.095Z,1.45
2022-11-23T00:33:25.514Z,1.50
2022-11-23T00:36:07.313Z,1.25
2022-11-23T00:38:36.901Z,0.98
2022-11-23T00:41:07.215Z,1.30
2022-11-23T00:43:54.864Z,1.02
2022-11-23T00:46:33.339Z,0.98
2022-11-23T00:49:22.149Z,1.08
2022-11-23T00:52:05.457Z,1.40
2022-11-23T00:54:34.398Z,0.88
2022-11-23T00:57:05.251Z,1.08
2022-11-23T00:59:37.608Z,1.20
2022-11-23T01:02:08.495Z,1.15
2022-11-23T01:04:56.158Z,1.02
2022-11-23T01:07:46.026Z,1.15
2022-11-23T01:10:30.367Z,0.90
2022-11-23T01:13:12.144Z,1.25
2022-11-23T01:16:00.034Z,1.23
2022-11-23T01:18:42.231Z,1.60
2022-11-23T01:21:22.890Z,1.08
2022-11-23T01:24:00.656Z,1.20
2022-11-23T01:26:40.900Z,1.40
2022-11-23T01:29:26.097Z,1.40
2022-11-23T01:32:09.015Z,1.50
2022-11-23T01:34:52.202Z,1.30
2022-11-23T01:37:29.878Z,1.65
2022-11-23T01:40:15.223Z,1.35
2022-11-23T01:43:02.744Z,1.30
2022-11-23T01:45:53.489Z,1.52
2022-11-23T01:48:29.292Z,1.42
2022-11-23T01:51:05.885Z,2.25
2022-11-23T01:53:39.649Z,1.30
2022-11-23T01:56:08.628Z,1.35
2022-11-23T01:58:53.642Z,1.52
2022-11-23T02:01:36.661Z,1.88
2022-11-23T02:04:28.276Z,1.42
2022-11-23T02:07:17.194Z,1.05
2022-11-23T02:09:48.758Z,1.55
2022-11-23T02:12:19.657Z,1.42
2022-11-23T02:14:50.773Z,1.75
2022-11-23T02:17:21.968Z,2.33
2022-11-23T02:20:19.187Z,1.27
2022-11-23T02:23:05.464Z,1.92
2022-11-23T02:25:47.029Z,1.00
2022-11-23T02:28:20.666Z,1.40
2022-11-23T02:30:52.811Z,1.20
2022-11-23T02:33:42.275Z,1.30
2022-11-23T02:36:29.745Z,1.45
2022-11-23T02:39:33.618Z,1.45
2022-11-23T02:42:02.916Z,1.40
2022-11-23T02:44:35.542Z,1.08
2022-11-23T02:47:04.060Z,1.58
2022-11-23T02:49:34.145Z,1.45
2022-11-23T02:52:03.157Z,1.33
2022-11-23T02:54:34.730Z,1.98
2022-11-23T02:57:05.078Z,1.40
2022-11-23T02:59:36.597Z,1.60
2022-11-23T03:02:08.990Z,2.30
2022-11-23T03:04:39.408Z,2.13
2022-11-23T03:07:08.087Z,1.25
2022-11-23T03:09:37.163Z,2.22
2022-11-23T03:12:05.924Z,1.90
2022-11-23T03:14:38.642Z,1.33
2022-11-23T03:17:07.917Z,1.63
2022-11-23T03:19:44.013Z,0.98
2022-11-23T03:22:16.067Z,1.27
2022-11-23T03:24:51.415Z,0.85
2022-11-23T03:27:21.465Z,1.00
2022-11-23T03:29:53.005Z,1.30
2022-11-23T03:32:25.459Z,1.08
2022-11-23T03:34:57.400Z,1.65
2022-11-23T03:37:49.285Z,1.83
2022-11-23T03:40:31.607Z,1.50
2022-11-23T03:43:26.345Z,1.30
2022-11-23T03:46:09.192Z,1.40
2022-11-23T03:48:38.029Z,1.60
2022-11-23T03:51:08.967Z,1.58
2022-11-23T03:53:41.199Z,1.33
2022-11-23T03:56:10.274Z,1.52
2022-11-23T04:01:17.548Z,1.45
2022-11-23T04:03:53.888Z,1.20
2022-11-23T04:06:45.374Z,1.65
2022-11-23T04:09:27.381Z,1.52
2022-11-23T04:12:18.385Z,1.48
2022-11-23T04:14:47.137Z,1.25
2022-11-23T04:17:15.793Z,2.20
2022-11-23T04:19:49.643Z,1.27
2022-11-23T04:22:17.956Z,1.00
2022-11-23T04:24:46.625Z,2.75
2022-11-23T04:27:17.802Z,1.42
2022-11-23T04:30:05.804Z,1.80
2022-11-23T04:32:53.826Z,1.25
2022-11-23T04:35:37.891Z,1.73
2022-11-23T04:38:25.449Z,1.83
2022-11-23T04:41:05.563Z,1.70
2022-11-23T04:43:55.165Z,1.60
2022-11-23T04:46:44.946Z,1.80
2022-11-23T04:49:28.906Z,1.75
2022-11-23T04:52:16.703Z,1.58
2022-11-23T04:55:08.693Z,1.85
2022-11-23T04:57:47.001Z,3.55
2022-11-23T05:00:34.576Z,1.55
2022-11-23T05:03:24.446Z,1.38
2022-11-23T05:06:12.371Z,1.70
2022-11-23T05:09:02.761Z,1.60
2022-11-23T05:12:19.385Z,1.27
2022-11-23T05:15:07.254Z,1.58
2022-11-23T05:18:07.732Z,1.77
2022-11-23T05:20:56.813Z,1.63
2022-11-23T05:23:47.052Z,1.25
2022-11-23T05:26:16.044Z,2.60
2022-11-23T05:28:45.040Z,2.35
2022-11-23T05:31:16.434Z,2.65
2022-11-23T05:33:52.792Z,1.75
2022-11-23T05:36:51.984Z,2.17
2022-11-23T05:39:35.137Z,1.83
2022-11-23T05:42:25.414Z,2.22
2022-11-23T05:45:12.058Z,1.70
2022-11-23T05:47:57.828Z,1.35
2022-11-23T05:50:45.108Z,1.50
2022-11-23T05:53:42.651Z,1.67
2022-11-23T05:56:21.637Z,0.75
2022-11-23T05:59:35.847Z,1.13
2022-11-23T06:02:04.692Z,1.42
2022-11-23T06:04:49.554Z,1.88
2022-11-23T06:07:46.208Z,1.83
2022-11-23T06:13:11.021Z,1.60
2022-11-23T06:15:40.130Z,1.80
2022-11-23T06:18:18.458Z,1.42
2022-11-23T06:21:02.018Z,2.35
2022-11-23T06:23:52.604Z,1.83
2022-11-23T06:26:42.268Z,1.40
2022-11-23T06:29:30.671Z,1.90
2022-11-23T06:32:16.185Z,1.98
2022-11-23T06:35:03.718Z,1.60
2022-11-23T06:37:55.358Z,1.83
2022-11-23T06:40:27.412Z,1.83
2022-11-23T06:43:00.987Z,2.97
2022-11-23T06:45:39.472Z,2.15
2022-11-23T06:48:12.639Z,1.98
2022-11-23T06:50:45.753Z,1.70
2022-11-23T06:53:15.396Z,1.85
2022-11-23T06:56:02.899Z,1.58
2022-11-23T06:58:52.049Z,2.17
2022-11-23T07:01:41.218Z,1.40
2022-11-23T07:04:31.387Z,1.85
2022-11-23T07:07:19.179Z,1.70
2022-11-23T07:09:57.551Z,2.15
2022-11-23T07:12:45.759Z,1.73
2022-11-23T07:15:16.585Z,1.92
2022-11-23T07:17:53.823Z,1.80
2022-11-23T07:20:24.585Z,2.28
2022-11-23T07:23:00.705Z,2.17
2022-11-23T07:25:33.031Z,2.27
2022-11-23T07:28:03.856Z,2.47
2022-11-23T07:30:34.940Z,1.27
2022-11-23T07:33:22.991Z,1.73
2022-11-23T07:35:53.470Z,1.77
2022-11-23T07:41:20.470Z,1.25
2022-11-23T07:44:18.613Z,1.65
2022-11-23T07:46:48.317Z,1.83
2022-11-23T07:49:19.383Z,2.45
2022-11-23T07:51:58.909Z,1.50
2022-11-23T07:54:28.897Z,1.42
2022-11-23T07:56:58.043Z,1.65
2022-11-23T07:59:29.630Z,1.77
2022-11-23T08:01:58.732Z,1.40
2022-11-23T08:04:27.812Z,1.35
2022-11-23T08:06:57.111Z,1.20
2022-11-23T08:09:25.679Z,1.30
2022-11-23T08:11:55.348Z,1.25
2022-11-23T08:14:24.530Z,2.20
2022-11-23T08:16:53.401Z,1.13
2022-11-23T08:19:21.691Z,1.30
2022-11-23T08:21:52.609Z,2.13
2022-11-23T08:24:23.517Z,1.20
2022-11-23T08:27:07.992Z,1.80
2022-11-23T08:29:55.677Z,1.55
2022-11-23T08:32:43.615Z,0.90
2022-11-23T08:35:26.711Z,1.25
2022-11-23T08:38:16.589Z,1.23
2022-11-23T08:41:00.861Z,2.38
2022-11-23T08:43:48.943Z,1.05
2022-11-23T08:46:32.351Z,1.40
2022-11-23T08:49:21.160Z,1.45
2022-11-23T08:51:59.906Z,1.60
2022-11-23T08:54:46.910Z,1.70
2022-11-23T08:57:23.513Z,1.25
2022-11-23T09:00:12.326Z,1.73
2022-11-23T09:03:00.173Z,1.30
2022-11-23T09:05:39.841Z,0.80
2022-11-23T09:08:27.387Z,1.55
2022-11-23T09:11:05.583Z,1.38
2022-11-23T09:13:37.126Z,1.27
2022-11-23T09:16:11.036Z,2.22
2022-11-23T09:18:39.804Z,1.25
2022-11-23T09:21:21.364Z,1.20
2022-11-23T09:24:10.851Z,1.42
2022-11-23T09:26:57.283Z,1.13
2022-11-23T09:29:47.309Z,1.42
2022-11-23T09:32:37.435Z,1.67
2022-11-23T09:35:25.391Z,2.55
2022-11-23T09:38:11.869Z,1.45
2022-11-23T09:41:18.548Z,1.73
2022-11-23T09:43:51.222Z,1.50
2022-11-23T09:46:37.009Z,2.03
2022-11-23T09:49:16.293Z,1.40
2022-11-23T09:51:45.157Z,1.23
2022-11-23T09:54:24.371Z,2.03
2022-11-23T09:57:01.632Z,1.77
2022-11-23T09:59:54.937Z,0.93
2022-11-23T10:02:40.642Z,1.65
2022-11-23T10:05:33.386Z,1.00
2022-11-23T10:08:28.355Z,1.00
2022-11-23T10:11:03.897Z,1.70
2022-11-23T10:14:05.250Z,1.58
2022-11-23T10:16:36.592Z,1.20
2022-11-23T10:19:13.278Z,1.88
2022-11-23T10:21:53.408Z,1.35
2022-11-23T10:24:25.141Z,2.42
2022-11-23T10:26:53.327Z,1.65
2022-11-23T10:29:27.647Z,1.92
2022-11-23T10:31:58.027Z,1.80
2022-11-23T10:34:26.888Z,1.50
2022-11-23T10:37:03.075Z,1.17
2022-11-23T10:39:45.951Z,1.27
2022-11-23T10:42:19.914Z,1.30
2022-11-23T10:45:19.385Z,3.63
2022-11-23T10:48:05.213Z,1.95
2022-11-23T10:50:51.746Z,1.23
2022-11-23T10:53:37.193Z,1.65
2022-11-23T10:56:18.579Z,1.45
2022-11-23T10:58:47.423Z,1.27
2022-11-23T11:01:17.354Z,1.17
2022-11-23T11:03:45.745Z,1.75
2022-11-23T11:06:22.118Z,1.17
2022-11-23T11:08:59.568Z,1.35
2022-11-23T11:11:38.407Z,1.65
2022-11-23T11:14:08.090Z,1.52
2022-11-23T11:16:38.322Z,1.00
2022-11-23T11:19:28.138Z,1.35
2022-11-23T11:22:26.774Z,2.85
2022-11-23T11:25:27.363Z,1.10
2022-11-23T11:28:25.571Z,1.42
2022-11-23T11:30:55.146Z,1.63
2022-11-23T11:33:36.023Z,1.40
2022-11-23T11:36:05.678Z,0.93
2022-11-23T11:38:37.904Z,1.58
2022-11-23T11:41:11.233Z,1.50
2022-11-23T11:43:52.905Z,1.30
2022-11-23T11:46:29.421Z,0.80
2022-11-23T11:49:01.214Z,0.60
2022-11-23T11:54:00.849Z,1.10
2022-11-23T11:56:35.744Z,1.50
2022-11-23T11:59:15.317Z,0.80
2022-11-23T12:01:57.095Z,1.63
2022-11-23T12:04:49.979Z,1.77
2022-11-23T12:07:49.137Z,2.00
2022-11-23T12:10:43.036Z,0.52
2022-11-23T12:13:23.965Z,1.20
2022-11-23T12:15:56.930Z,1.15
2022-11-23T12:18:31.038Z,0.65
2022-11-23T12:21:06.504Z,1.13
2022-11-23T12:24:09.103Z,1.10
2022-11-23T12:27:05.362Z,1.05
2022-11-23T12:30:00.086Z,1.42
2022-11-23T12:32:41.799Z,2.25
2022-11-23T12:35:19.224Z,1.48
2022-11-23T12:37:49.511Z,1.13
2022-11-23T12:40:25.925Z,0.70
2022-11-23T12:43:01.880Z,0.80
2022-11-23T12:45:30.019Z,1.33
2022-11-23T12:47:58.254Z,1.13
2022-11-23T12:50:41.125Z,0.60
2022-11-23T12:53:15.271Z,1.40
2022-11-23T12:55:52.756Z,1.38
2022-11-23T12:58:30.456Z,1.30
2022-11-23T13:01:03.995Z,1.40
2022-11-23T13:03:46.954Z,1.40
2022-11-23T13:06:17.838Z,1.00
2022-11-23T13:09:04.766Z,1.00
2022-11-23T13:11:32.658Z,1.77
2022-11-23T13:14:02.900Z,0.85
2022-11-23T13:16:34.292Z,1.42
2022-11-23T13:19:15.304Z,1.75
2022-11-23T13:21:51.274Z,0.98
2022-11-23T13:24:32.630Z,1.30
2022-11-23T13:27:13.947Z,1.20
2022-11-23T13:30:04.808Z,1.40
2022-11-23T13:32:47.544Z,1.23
2022-11-23T13:35:24.918Z,1.45
2022-11-23T13:38:00.289Z,1.42
2022-11-23T13:40:28.399Z,1.38
2022-11-23T13:43:09.571Z,1.98
2022-11-23T13:45:40.091Z,1.00
2022-11-23T13:51:29.673Z,1.27
2022-11-23T13:54:06.136Z,1.33
2022-11-23T13:56:45.271Z,1.00
2022-11-23T13:59:25.355Z,1.30
2022-11-23T14:02:07.670Z,2.15
2022-11-23T14:04:41.570Z,0.90
2022-11-23T14:07:32.065Z,0.85
2022-11-23T14:10:08.331Z,0.90
2022-11-23T14:12:50.513Z,0.85
2022-11-23T14:15:23.004Z,1.10
2022-11-23T14:18:11.925Z,1.10
2022-11-23T14:20:58.878Z,1.20
2022-11-23T14:23:42.999Z,1.23
2022-11-23T14:26:16.863Z,1.02
2022-11-23T14:28:53.267Z,1.23
2022-11-23T14:31:24.631Z,1.50
2022-11-23T14:34:05.257Z,1.30
2022-11-23T14:36:44.580Z,1.25
2022-11-23T14:39:27.908Z,1.38
2022-11-23T14:41:59.704Z,2.00
2022-11-23T14:44:30.231Z,1.75
2022-11-23T14:47:05.465Z,2.75
2022-11-23T14:49:34.134Z,2.65
2022-11-23T14:52:20.470Z,2.05
2022-11-23T14:55:08.445Z,1.33
2022-11-23T14:57:46.855Z,1.75
2022-11-23T15:00:40.125Z,1.50
2022-11-23T15:03:49.859Z,1.75
2022-11-23T15:06:17.859Z,1.80
2022-11-23T15:08:50.954Z,1.77
2022-11-23T15:11:24.736Z,2.10
2022-11-23T15:13:55.172Z,2.28
2022-11-23T15:16:27.921Z,1.33
2022-11-23T15:18:58.214Z,1.95
2022-11-23T15:21:28.357Z,1.58
2022-11-23T15:24:22.826Z,2.15
2022-11-23T15:27:11.092Z,1.60
2022-11-23T15:30:02.706Z,2.30
2022-11-23T15:32:58.736Z,1.33
2022-11-23T15:35:45.398Z,1.20
2022-11-23T15:38:33.231Z,1.48
2022-11-23T15:41:06.499Z,1.23
2022-11-23T15:43:56.805Z,1.80
2022-11-23T15:46:46.319Z,1.38
2022-11-23T15:49:41.240Z,1.80
2022-11-23T15:52:30.328Z,2.15
2022-11-23T15:55:23.542Z,1.42
2022-11-23T15:57:56.297Z,1.50
2022-11-23T16:00:48.388Z,1.67
2022-11-23T16:03:42.484Z,1.40
2022-11-23T16:06:25.739Z,1.77
2022-11-23T16:12:48.749Z,1.48
2022-11-23T16:15:37.904Z,1.60
2022-11-23T16:18:21.514Z,3.25
2022-11-23T16:20:57.521Z,1.70
2022-11-23T16:23:45.772Z,3.30
2022-11-23T16:26:34.088Z,1.92
2022-11-23T16:29:33.661Z,2.67
2022-11-23T16:32:32.082Z,2.50
2022-11-23T16:35:18.686Z,2.00
2022-11-23T16:38:12.671Z,1.98
2022-11-23T16:41:00.353Z,2.70
2022-11-23T16:43:29.029Z,1.92
2022-11-23T16:46:02.095Z,1.98
2022-11-23T16:48:39.175Z,2.15
2022-11-23T16:51:10.933Z,1.75
2022-11-23T16:54:12.893Z,1.88
2022-11-23T16:57:01.399Z,1.80
2022-11-23T16:59:49.372Z,1.90
2022-11-23T17:02:36.662Z,1.70
2022-11-23T17:05:25.164Z,2.53
2022-11-23T17:07:53.982Z,2.17
2022-11-23T17:10:25.209Z,1.67
2022-11-23T17:12:56.262Z,1.95
2022-11-23T17:15:41.766Z,2.05
2022-11-23T17:18:14.299Z,1.55
2022-11-23T17:20:45.946Z,2.00
2022-11-23T17:23:16.007Z,1.80
2022-11-23T17:26:01.418Z,1.30
2022-11-23T17:28:49.142Z,1.88
2022-11-23T17:31:36.811Z,1.73
2022-11-23T17:34:23.428Z,0.90
2022-11-23T17:37:17.406Z,1.50
2022-11-23T17:40:04.068Z,1.95
2022-11-23T17:42:51.815Z,1.77
2022-11-23T17:45:39.871Z,2.05
2022-11-23T17:48:10.523Z,4.88
2022-11-23T17:50:42.403Z,4.68
2022-11-23T17:53:11.814Z,3.33
2022-11-23T17:55:41.374Z,6.65
2022-11-23T17:58:13.189Z,2.90
2022-11-23T18:00:42.306Z,2.38
2022-11-23T18:03:27.498Z,3.20
2022-11-23T18:06:01.206Z,2.72
2022-11-23T18:08:32.127Z,2.35
2022-11-23T18:11:20.309Z,3.25
2022-11-23T18:14:03.268Z,3.55
2022-11-23T18:16:51.407Z,2.97
2022-11-23T18:19:38.326Z,1.83
2022-11-23T18:22:26.091Z,2.38
2022-11-23T18:25:14.013Z,2.40
2022-11-23T18:28:06.504Z,2.20
2022-11-23T18:30:37.737Z,1.60
2022-11-23T18:33:25.555Z,1.52
2022-11-23T18:36:04.895Z,2.03
2022-11-23T18:38:36.163Z,1.88
2022-11-23T18:41:05.297Z,2.28
2022-11-23T18:43:34.271Z,0.80
2022-11-23T18:46:05.899Z,0.85
2022-11-23T18:48:40.018Z,1.23
2022-11-23T18:51:16.882Z,1.15
2022-11-23T18:53:47.441Z,1.15
2022-11-23T18:56:20.758Z,1.55
2022-11-23T18:58:50.160Z,1.02
2022-11-23T19:01:21.826Z,1.48
2022-11-23T19:04:12.055Z,1.23
2022-11-23T19:06:59.610Z,1.20
2022-11-23T19:09:50.138Z,1.05
2022-11-23T19:12:18.733Z,1.92
2022-11-23T19:14:49.857Z,1.35
2022-11-23T19:17:21.795Z,1.67
2022-11-23T19:19:53.425Z,1.98
2022-11-23T19:22:25.043Z,5.32
2022-11-23T19:24:53.947Z,2.90
2022-11-23T19:27:23.750Z,3.20
2022-11-23T19:29:53.020Z,3.13
2022-11-23T19:32:27.064Z,3.17
2022-11-23T19:34:55.681Z,3.17
2022-11-23T19:37:27.880Z,4.28
2022-11-23T19:39:56.646Z,3.08
2022-11-23T19:42:25.123Z,4.22
2022-11-23T19:45:12.732Z,3.95
2022-11-23T19:48:00.718Z,3.90
2022-11-23T19:50:55.461Z,3.53
2022-11-23T19:53:43.899Z,4.18
2022-11-23T19:56:17.044Z,4.03
2022-11-23T19:58:45.796Z,5.13
2022-11-23T20:01:18.805Z,4.95
2022-11-23T20:03:51.998Z,5.22
2022-11-23T20:06:42.456Z,4.15
2022-11-23T20:09:30.291Z,5.03
2022-11-23T20:12:18.316Z,4.32
2022-11-23T20:15:05.025Z,4.45
2022-11-23T20:17:55.433Z,3.60
2022-11-23T20:20:44.769Z,4.65
2022-11-23T20:23:32.802Z,4.55
2022-11-23T20:26:19.750Z,3.92
2022-11-23T20:28:52.814Z,4.90
2022-11-23T20:31:22.643Z,3.53
2022-11-23T20:33:54.931Z,4.68
2022-11-23T20:36:23.408Z,4.38
2022-11-23T20:39:11.929Z,3.70
2022-11-23T20:41:59.753Z,3.50
2022-11-23T20:44:47.290Z,4.70
2022-11-23T20:47:37.056Z,3.85
2022-11-23T20:50:06.738Z,3.92
2022-11-23T20:52:44.451Z,3.22
2022-11-23T20:55:20.427Z,3.60
2022-11-23T20:57:53.996Z,4.10
2022-11-23T21:00:42.703Z,4.00
2022-11-23T21:03:33.307Z,4.18
2022-11-23T21:06:20.087Z,4.80
2022-11-23T21:09:11.258Z,3.83
2022-11-23T21:12:19.222Z,4.88
2022-11-23T21:15:05.960Z,4.55
2022-11-23T21:17:54.259Z,4.05
2022-11-23T21:20:35.172Z,4.00
2022-11-23T21:23:19.882Z,3.88
2022-11-23T21:26:07.017Z,3.85
2022-11-23T21:28:55.647Z,4.68
2022-11-23T21:31:44.548Z,4.68
2022-11-23T21:34:29.815Z,3.90
2022-11-23T21:37:00.987Z,4.60
2022-11-23T21:39:31.861Z,3.83
2022-11-23T21:42:01.017Z,4.55
2022-11-23T21:44:34.724Z,4.15
2022-11-23T21:47:06.732Z,4.30
2022-11-23T21:49:37.027Z,3.92
2022-11-23T21:52:08.994Z,4.55
2022-11-23T21:54:38.584Z,4.10
2022-11-23T21:57:25.165Z,4.45
2022-11-23T22:00:13.669Z,5.00
2022-11-23T22:03:01.564Z,3.92
2022-11-23T22:05:30.841Z,5.15
2022-11-23T22:08:27.880Z,4.05
2022-11-23T22:10:48.964Z,3.65
2022-11-23T22:13:20.564Z,4.60
2022-11-23T22:15:50.703Z,4.95
2022-11-23T22:18:19.659Z,3.13
2022-11-23T22:20:48.097Z,5.05
2022-11-23T22:23:24.051Z,4.20
2022-11-23T22:25:52.696Z,4.43
2022-11-23T22:28:23.484Z,4.50
2022-11-23T22:30:54.540Z,4.03
2022-11-23T22:33:33.338Z,3.70
2022-11-23T22:36:13.955Z,4.82
2022-11-23T22:39:05.118Z,3.88
2022-11-23T22:41:52.773Z,3.83
2022-11-23T22:44:39.763Z,4.10
2022-11-23T22:47:08.541Z,3.83
2022-11-23T22:49:39.072Z,4.70
2022-11-23T22:52:07.454Z,4.88
2022-11-23T22:54:40.722Z,5.30
2022-11-23T22:57:30.634Z,4.30
2022-11-23T23:00:11.445Z,4.47
2022-11-23T23:03:01.643Z,4.30
2022-11-23T23:05:56.406Z,4.07
2022-11-23T23:08:34.509Z,4.57
2022-11-23T23:11:18.477Z,4.28
2022-11-23T23:14:06.900Z,4.70
2022-11-23T23:16:54.585Z,5.68
2022-11-23T23:19:39.416Z,4.50
2022-11-23T23:22:27.013Z,3.70
2022-11-23T23:25:09.900Z,4.68
2022-11-23T23:27:58.234Z,4.90
2022-11-23T23:30:27.662Z,5.63
2022-11-23T23:33:15.221Z,3.13
2022-11-23T23:35:46.529Z,4.07
2022-11-23T23:38:15.836Z,3.78
2022-11-23T23:41:03.213Z,5.40
2022-11-23T23:43:50.857Z,4.40
2022-11-23T23:46:38.540Z,4.38
2022-11-23T23:49:31.602Z,4.22
2022-11-23T23:52:18.781Z,5.28
2022-11-23T23:55:07.013Z,3.70
2022-11-23T23:57:43.145Z,3.95
